createdAt,value
2019-05-01T00:02:40.633Z,7.37
2019-05-01T00:05:24.648Z,7.43
2019-05-01T00:07:56.712Z,7.48
2019-05-01T00:10:28.873Z,7.49
2019-05-01T00:13:00.095Z,7.48
2019-05-01T00:15:34.204Z,7.46
2019-05-01T00:18:06.712Z,7.47
2019-05-01T00:20:38.992Z,7.52
2019-05-01T00:23:12.799Z,7.54
2019-05-01T00:25:45.312Z,7.50
2019-05-01T00:28:19.102Z,7.44
2019-05-01T00:30:59.012Z,7.44
2019-05-01T00:33:31.333Z,7.47
2019-05-01T00:36:02.372Z,7.43
2019-05-01T00:38:34.123Z,7.34
2019-05-01T00:41:08.806Z,7.30
2019-05-01T00:43:40.713Z,7.32
2019-05-01T00:46:12.693Z,7.27
2019-05-01T00:48:44.713Z,7.24
2019-05-01T00:51:18.695Z,7.17
2019-05-01T00:53:53.153Z,7.25
2019-05-01T00:56:44.192Z,7.22
2019-05-01T00:59:35.153Z,7.13
2019-05-01T01:02:22.353Z,7.12
2019-05-01T01:04:54.813Z,7.11
2019-05-01T01:07:26.875Z,7.10
2019-05-01T01:09:59.073Z,7.06
2019-05-01T01:12:31.182Z,7.15
2019-05-01T01:15:05.254Z,7.18
2019-05-01T01:17:37.193Z,7.20
2019-05-01T01:20:09.453Z,7.25
2019-05-01T01:22:41.553Z,7.30
2019-05-01T01:25:14.264Z,7.29
2019-05-01T01:27:46.715Z,7.31
2019-05-01T01:30:19.063Z,7.32
2019-05-01T01:32:51.143Z,7.32
2019-05-01T01:35:24.813Z,7.25
2019-05-01T01:37:56.824Z,7.26
2019-05-01T01:40:29.173Z,7.29
2019-05-01T01:43:19.021Z,7.39
2019-05-01T01:45:53.273Z,7.38
2019-05-01T01:48:25.734Z,7.30
2019-05-01T01:51:00.963Z,7.27
2019-05-01T01:53:33.992Z,7.25
2019-05-01T01:56:06.252Z,7.26
2019-05-01T01:58:38.463Z,7.29
2019-05-01T02:01:32.552Z,7.39
2019-05-01T02:04:09.913Z,7.52
2019-05-01T02:06:42.127Z,7.56
2019-05-01T02:09:13.242Z,7.54
2019-05-01T02:11:47.085Z,7.64
2019-05-01T02:14:19.092Z,7.59
2019-05-01T02:16:51.253Z,7.51
2019-05-01T02:19:22.352Z,7.45
2019-05-01T02:21:54.273Z,7.37
2019-05-01T02:24:26.403Z,7.30
2019-05-01T02:26:59.142Z,7.32
2019-05-01T02:29:40.952Z,7.36
2019-05-01T02:32:13.975Z,7.34
2019-05-01T02:34:47.996Z,7.27
2019-05-01T02:37:20.694Z,7.22
2019-05-01T02:39:53.697Z,7.23
2019-05-01T02:42:28.744Z,7.20
2019-05-01T02:45:03.323Z,7.11
2019-05-01T02:47:39.234Z,6.97
2019-05-01T02:50:12.449Z,6.85
2019-05-01T02:52:46.015Z,6.84
2019-05-01T02:55:28.381Z,6.75
2019-05-01T02:58:01.546Z,6.72
2019-05-01T03:00:33.903Z,6.85
2019-05-01T03:03:06.253Z,6.99
2019-05-01T03:05:37.297Z,7.06
2019-05-01T03:08:10.297Z,7.11
2019-05-01T03:10:42.814Z,7.08
2019-05-01T03:13:15.375Z,6.99
2019-05-01T03:15:48.273Z,6.91
2019-05-01T03:18:35.053Z,6.85
2019-05-01T03:21:19.869Z,6.85
2019-05-01T03:23:56.328Z,6.83
2019-05-01T03:26:28.464Z,6.85
2019-05-01T03:29:03.255Z,6.83
2019-05-01T03:31:35.493Z,6.87
2019-05-01T03:34:07.840Z,6.82
2019-05-01T03:36:40.884Z,6.72
2019-05-01T03:39:13.706Z,6.72
2019-05-01T03:41:47.318Z,6.78
2019-05-01T03:44:20.276Z,6.81
2019-05-01T03:46:53.305Z,6.87
2019-05-01T03:49:26.297Z,6.91
2019-05-01T03:51:58.948Z,6.96
2019-05-01T03:54:31.515Z,6.99
2019-05-01T03:57:04.005Z,7.03
2019-05-01T03:59:36.438Z,7.07
2019-05-01T04:02:33.909Z,7.09
2019-05-01T04:04:59.770Z,7.17
2019-05-01T04:07:36.089Z,7.25
2019-05-01T04:10:06.975Z,7.38
2019-05-01T04:12:39.657Z,7.45
2019-05-01T04:15:12.153Z,7.52
2019-05-01T04:17:49.607Z,7.58
2019-05-01T04:20:21.957Z,7.63
2019-05-01T04:22:57.305Z,7.66
2019-05-01T04:25:29.535Z,7.68
2019-05-01T04:28:03.487Z,7.75
2019-05-01T04:30:53.114Z,7.78
2019-05-01T04:33:26.256Z,7.82
2019-05-01T04:36:04.385Z,7.91
2019-05-01T04:38:36.685Z,7.96
2019-05-01T04:41:08.985Z,8.03
2019-05-01T04:43:41.417Z,8.08
2019-05-01T04:46:14.109Z,8.17
2019-05-01T04:48:46.254Z,8.17
2019-05-01T04:51:17.508Z,8.27
2019-05-01T04:53:51.206Z,8.41
2019-05-01T04:56:23.337Z,8.52
2019-05-01T04:58:54.444Z,8.66
2019-05-01T05:01:31.125Z,8.78
2019-05-01T05:04:03.365Z,8.90
2019-05-01T05:06:35.766Z,8.99
2019-05-01T05:09:07.245Z,9.14
2019-05-01T05:11:49.704Z,9.25
2019-05-01T05:14:26.645Z,9.42
2019-05-01T05:17:05.796Z,9.59
2019-05-01T05:19:38.992Z,9.71
2019-05-01T05:22:11.344Z,9.94
2019-05-01T05:24:43.703Z,10.13
2019-05-01T05:27:16.763Z,10.29
2019-05-01T05:29:49.445Z,10.51
2019-05-01T05:32:23.655Z,10.73
2019-05-01T05:34:59.607Z,10.86
2019-05-01T05:37:39.765Z,11.06
2019-05-01T05:40:12.681Z,11.21
2019-05-01T05:42:45.114Z,11.37
2019-05-01T05:45:17.926Z,11.42
2019-05-01T05:47:51.154Z,11.49
2019-05-01T05:50:25.543Z,11.56
2019-05-01T05:53:03.333Z,11.46
2019-05-01T05:55:44.725Z,11.41
2019-05-01T05:58:26.266Z,11.39
2019-05-01T06:01:22.426Z,11.50
2019-05-01T06:04:21.355Z,11.37
2019-05-01T06:07:07.953Z,11.31
2019-05-01T06:09:51.555Z,11.13
2019-05-01T06:12:46.820Z,11.03
2019-05-01T06:15:41.266Z,11.01
2019-05-01T06:18:46.634Z,11.29
2019-05-01T06:21:46.893Z,11.47
2019-05-01T06:24:24.106Z,11.90
2019-05-01T06:26:57.485Z,11.91
2019-05-01T06:29:35.817Z,12.23
2019-05-01T06:32:05.545Z,12.57
2019-05-01T06:34:37.914Z,12.82
2019-05-01T06:37:09.805Z,12.79
2019-05-01T06:39:43.003Z,12.81
2019-05-01T06:42:16.914Z,12.87
2019-05-01T06:45:13.039Z,13.14
2019-05-01T06:48:01.966Z,13.42
2019-05-01T06:50:43.925Z,13.53
2019-05-01T06:53:16.388Z,13.69
2019-05-01T06:55:51.438Z,13.92
2019-05-01T06:58:23.514Z,14.16
2019-05-01T07:00:55.735Z,14.26
2019-05-01T07:03:28.814Z,14.31
2019-05-01T07:06:13.744Z,14.35
2019-05-01T07:08:39.515Z,14.39
2019-05-01T07:11:10.833Z,14.57
2019-05-01T07:13:51.734Z,14.70
2019-05-01T07:16:24.863Z,14.91
2019-05-01T07:19:05.841Z,14.96
2019-05-01T07:21:32.911Z,15.16
2019-05-01T07:24:06.273Z,15.32
2019-05-01T07:26:37.094Z,15.46
2019-05-01T07:29:12.395Z,15.63
2019-05-01T07:31:47.713Z,15.43
2019-05-01T07:34:21.757Z,15.51
2019-05-01T07:36:54.115Z,15.76
2019-05-01T07:39:26.315Z,15.64
2019-05-01T07:41:58.984Z,15.66
2019-05-01T07:44:38.493Z,15.73
2019-05-01T07:47:18.440Z,16.20
2019-05-01T07:49:58.051Z,16.60
2019-05-01T07:52:31.095Z,16.83
2019-05-01T07:55:04.526Z,17.15
2019-05-01T07:57:39.504Z,17.42
2019-05-01T08:00:21.425Z,17.73
2019-05-01T08:02:53.825Z,17.88
2019-05-01T08:05:26.048Z,17.97
2019-05-01T08:07:58.433Z,18.13
2019-05-01T08:10:33.725Z,18.15
2019-05-01T08:13:04.265Z,18.29
2019-05-01T08:15:36.418Z,18.64
2019-05-01T08:18:36.226Z,18.68
2019-05-01T08:21:26.166Z,18.71
2019-05-01T08:23:59.686Z,18.77
2019-05-01T08:26:32.113Z,18.99
2019-05-01T08:29:27.604Z,19.14
2019-05-01T08:32:11.095Z,19.45
2019-05-01T08:34:49.156Z,19.62
2019-05-01T08:37:22.678Z,19.94
2019-05-01T08:39:52.483Z,19.76
2019-05-01T08:42:24.513Z,19.67
2019-05-01T08:45:18.215Z,19.62
2019-05-01T08:48:00.362Z,19.52
2019-05-01T08:50:31.535Z,19.82
2019-05-01T08:53:03.667Z,19.92
2019-05-01T08:55:39.808Z,20.38
2019-05-01T08:58:13.929Z,20.81
2019-05-01T09:00:45.325Z,21.10
2019-05-01T09:03:18.566Z,21.43
2019-05-01T09:05:52.207Z,21.60
2019-05-01T09:08:22.665Z,21.85
2019-05-01T09:10:59.920Z,22.03
2019-05-01T09:13:29.395Z,21.98
2019-05-01T09:16:01.666Z,21.64
2019-05-01T09:18:33.833Z,21.71
2019-05-01T09:21:05.223Z,22.14
2019-05-01T09:23:37.254Z,21.77
2019-05-01T09:26:36.303Z,21.69
2019-05-01T09:29:11.048Z,21.65
2019-05-01T09:31:44.685Z,21.57
2019-05-01T09:34:19.247Z,22.07
2019-05-01T09:36:51.107Z,22.65
2019-05-01T09:39:23.893Z,22.92
2019-05-01T09:41:54.784Z,22.45
2019-05-01T09:44:27.685Z,21.99
2019-05-01T09:47:00.136Z,22.23
2019-05-01T09:49:32.283Z,22.43
2019-05-01T09:52:23.448Z,22.95
2019-05-01T09:55:04.505Z,22.99
2019-05-01T09:57:41.478Z,22.65
2019-05-01T10:00:15.362Z,22.65
2019-05-01T10:02:47.565Z,22.61
2019-05-01T10:05:28.621Z,22.92
2019-05-01T10:07:52.705Z,23.29
2019-05-01T10:10:29.305Z,23.89
2019-05-01T10:12:59.192Z,24.25
2019-05-01T10:15:30.264Z,24.12
2019-05-01T10:18:02.203Z,23.77
2019-05-01T10:20:34.073Z,23.80
2019-05-01T10:23:07.749Z,23.79
2019-05-01T10:25:42.816Z,23.60
2019-05-01T10:28:20.546Z,23.31
2019-05-01T10:31:06.937Z,23.67
2019-05-01T10:33:42.987Z,23.61
2019-05-01T10:36:33.863Z,24.37
2019-05-01T10:39:07.987Z,24.20
2019-05-01T10:41:41.011Z,23.55
2019-05-01T10:44:13.875Z,23.39
2019-05-01T10:46:45.065Z,23.53
2019-05-01T10:49:16.833Z,23.48
2019-05-01T10:51:48.344Z,23.02
2019-05-01T10:54:20.153Z,23.12
2019-05-01T10:56:52.094Z,23.63
2019-05-01T10:59:24.114Z,23.43
2019-05-01T11:01:58.715Z,22.60
2019-05-01T11:04:31.027Z,21.76
2019-05-01T11:07:03.183Z,21.03
2019-05-01T11:09:34.245Z,20.43
2019-05-01T11:12:06.213Z,21.00
2019-05-01T11:14:37.185Z,21.25
2019-05-01T11:17:09.034Z,21.25
2019-05-01T11:19:40.064Z,20.57
2019-05-01T11:22:12.113Z,20.48
2019-05-01T11:24:43.144Z,21.36
2019-05-01T11:27:14.905Z,21.86
2019-05-01T11:29:45.964Z,22.24
2019-05-01T11:32:45.673Z,22.41
2019-05-01T11:35:48.655Z,23.25
2019-05-01T11:38:42.623Z,23.14
2019-05-01T11:41:24.665Z,23.79
2019-05-01T11:43:56.733Z,24.19
2019-05-01T11:46:29.110Z,23.81
2019-05-01T11:49:01.098Z,23.38
2019-05-01T11:51:33.124Z,22.71
2019-05-01T11:54:04.229Z,22.17
2019-05-01T11:56:36.295Z,21.13
2019-05-01T11:59:07.324Z,20.79
2019-05-01T12:01:39.194Z,21.57
2019-05-01T12:04:10.408Z,21.28
2019-05-01T12:06:42.215Z,21.68
2019-05-01T12:09:13.451Z,22.38
2019-05-01T12:11:48.046Z,22.40
2019-05-01T12:14:20.024Z,22.89
2019-05-01T12:17:02.636Z,22.90
2019-05-01T12:19:34.755Z,23.21
2019-05-01T12:22:06.720Z,22.98
2019-05-01T12:24:39.387Z,23.02
2019-05-01T12:27:11.326Z,23.24
2019-05-01T12:29:43.315Z,23.26
2019-05-01T12:32:14.634Z,24.00
2019-05-01T12:34:46.464Z,23.79
2019-05-01T12:37:29.335Z,23.95
2019-05-01T12:40:01.423Z,23.68
2019-05-01T12:42:34.603Z,23.55
2019-05-01T12:45:08.725Z,23.46
2019-05-01T12:47:52.397Z,23.56
2019-05-01T12:50:24.773Z,23.53
2019-05-01T12:53:11.394Z,23.42
2019-05-01T12:56:05.275Z,23.21
2019-05-01T12:58:37.946Z,23.28
2019-05-01T13:01:10.166Z,23.28
2019-05-01T13:03:41.344Z,23.13
2019-05-01T13:06:14.505Z,22.93
2019-05-01T13:08:46.646Z,23.07
2019-05-01T13:11:17.706Z,23.19
2019-05-01T13:13:49.573Z,23.31
2019-05-01T13:16:21.849Z,23.52
2019-05-01T13:18:53.740Z,21.97
2019-05-01T13:21:25.685Z,21.33
2019-05-01T13:23:56.764Z,21.85
2019-05-01T13:26:34.575Z,22.36
2019-05-01T13:29:26.049Z,21.51
2019-05-01T13:32:15.845Z,21.78
2019-05-01T13:34:48.130Z,22.06
2019-05-01T13:37:20.665Z,22.05
2019-05-01T13:39:51.764Z,22.22
2019-05-01T13:42:23.485Z,21.82
2019-05-01T13:44:55.547Z,22.14
2019-05-01T13:47:26.604Z,22.02
2019-05-01T13:49:59.146Z,22.03
2019-05-01T13:52:30.184Z,22.11
2019-05-01T13:55:05.144Z,21.69
2019-05-01T13:57:37.133Z,21.67
2019-05-01T14:00:09.483Z,21.78
2019-05-01T14:02:43.195Z,21.83
2019-05-01T14:05:15.445Z,22.18
2019-05-01T14:07:46.594Z,22.21
2019-05-01T14:10:18.705Z,22.18
2019-05-01T14:12:50.894Z,21.88
2019-05-01T14:15:21.884Z,21.67
2019-05-01T14:17:53.645Z,21.49
2019-05-01T14:20:42.484Z,21.87
2019-05-01T14:23:23.986Z,22.13
2019-05-01T14:26:06.085Z,22.03
2019-05-01T14:28:38.731Z,21.55
2019-05-01T14:31:09.643Z,21.63
2019-05-01T14:33:41.605Z,21.47
2019-05-01T14:36:13.726Z,21.43
2019-05-01T14:38:45.896Z,21.24
2019-05-01T14:41:20.005Z,21.12
2019-05-01T14:43:51.063Z,21.30
2019-05-01T14:46:22.937Z,21.24
2019-05-01T14:48:54.998Z,21.03
2019-05-01T14:51:27.303Z,20.93
2019-05-01T14:53:59.445Z,21.03
2019-05-01T14:56:31.593Z,20.84
2019-05-01T14:59:03.653Z,20.86
2019-05-01T15:01:34.704Z,20.80
2019-05-01T15:04:06.671Z,20.56
2019-05-01T15:06:39.865Z,20.58
2019-05-01T15:09:12.134Z,20.51
2019-05-01T15:11:45.267Z,20.31
2019-05-01T15:14:42.685Z,20.29
2019-05-01T15:17:26.683Z,20.01
2019-05-01T15:20:05.267Z,20.16
2019-05-01T15:22:38.973Z,20.17
2019-05-01T15:25:10.184Z,20.21
2019-05-01T15:27:44.954Z,20.06
2019-05-01T15:30:20.433Z,19.98
2019-05-01T15:32:52.753Z,19.91
2019-05-01T15:35:24.874Z,19.99
2019-05-01T15:37:57.122Z,19.70
2019-05-01T15:40:38.164Z,19.66
2019-05-01T15:43:44.376Z,19.69
2019-05-01T15:46:16.635Z,19.72
2019-05-01T15:48:49.013Z,19.28
2019-05-01T15:51:20.055Z,19.00
2019-05-01T15:53:51.826Z,18.70
2019-05-01T15:56:23.806Z,18.43
2019-05-01T15:58:56.215Z,18.16
2019-05-01T16:01:28.325Z,18.00
2019-05-01T16:04:00.376Z,17.96
2019-05-01T16:06:31.383Z,17.94
2019-05-01T16:09:03.474Z,17.94
2019-05-01T16:12:11.216Z,17.93
2019-05-01T16:14:46.555Z,18.05
2019-05-01T16:17:18.473Z,18.09
2019-05-01T16:19:50.553Z,17.99
2019-05-01T16:22:21.584Z,17.89
2019-05-01T16:24:53.313Z,17.80
2019-05-01T16:27:25.308Z,17.75
2019-05-01T16:29:57.493Z,17.64
2019-05-01T16:32:29.595Z,17.50
2019-05-01T16:35:02.145Z,17.42
2019-05-01T16:37:34.405Z,17.31
2019-05-01T16:40:21.144Z,17.20
2019-05-01T16:42:52.973Z,17.09
2019-05-01T16:45:24.003Z,17.06
2019-05-01T16:47:55.753Z,16.92
2019-05-01T16:50:27.833Z,16.88
2019-05-01T16:52:59.174Z,16.77
2019-05-01T16:55:31.697Z,16.73
2019-05-01T16:58:05.153Z,16.73
2019-05-01T17:01:15.483Z,16.70
2019-05-01T17:04:06.415Z,16.63
2019-05-01T17:07:00.376Z,16.50
2019-05-01T17:09:49.744Z,16.40
2019-05-01T17:12:24.696Z,16.35
2019-05-01T17:14:56.948Z,16.31
2019-05-01T17:17:29.766Z,16.28
2019-05-01T17:20:01.952Z,16.20
2019-05-01T17:22:35.134Z,16.14
2019-05-01T17:25:06.904Z,16.06
2019-05-01T17:27:39.003Z,15.94
2019-05-01T17:30:17.106Z,15.88
2019-05-01T17:32:50.191Z,15.80
2019-05-01T17:35:22.102Z,15.75
2019-05-01T17:37:54.276Z,15.69
2019-05-01T17:40:25.284Z,15.63
2019-05-01T17:42:57.123Z,15.51
2019-05-01T17:45:29.966Z,15.43
2019-05-01T17:48:03.349Z,15.39
2019-05-01T17:50:35.245Z,15.31
2019-05-01T17:53:07.475Z,15.23
2019-05-01T17:55:39.763Z,15.14
2019-05-01T17:58:10.824Z,15.04
2019-05-01T18:01:01.634Z,14.93
2019-05-01T18:04:03.180Z,14.88
2019-05-01T18:06:42.016Z,14.80
2019-05-01T18:09:13.522Z,14.71
2019-05-01T18:11:47.312Z,14.65
2019-05-01T18:14:19.783Z,14.58
2019-05-01T18:16:53.285Z,14.47
2019-05-01T18:19:25.249Z,14.34
2019-05-01T18:22:06.945Z,14.24
2019-05-01T18:25:12.653Z,14.16
2019-05-01T18:27:59.973Z,14.06
2019-05-01T18:30:36.225Z,13.95
2019-05-01T18:33:08.268Z,13.89
2019-05-01T18:35:40.253Z,13.78
2019-05-01T18:38:30.174Z,13.67
2019-05-01T18:41:09.228Z,13.57
2019-05-01T18:43:41.305Z,13.46
2019-05-01T18:46:14.003Z,13.36
2019-05-01T18:48:46.146Z,13.25
2019-05-01T18:51:18.424Z,13.17
2019-05-01T18:53:50.436Z,13.06
2019-05-01T18:56:22.625Z,12.88
2019-05-01T18:58:54.686Z,12.76
2019-05-01T19:01:26.745Z,12.72
2019-05-01T19:03:57.703Z,12.68
2019-05-01T19:06:40.571Z,12.56
2019-05-01T19:09:14.841Z,12.52
2019-05-01T19:11:40.666Z,12.52
2019-05-01T19:14:11.805Z,12.46
2019-05-01T19:16:45.339Z,12.35
2019-05-01T19:19:18.195Z,12.30
2019-05-01T19:21:53.896Z,12.26
2019-05-01T19:24:25.883Z,12.27
2019-05-01T19:26:56.964Z,12.26
2019-05-01T19:29:32.187Z,12.20
2019-05-01T19:32:03.105Z,12.25
2019-05-01T19:34:34.224Z,12.28
2019-05-01T19:37:06.563Z,12.29
2019-05-01T19:39:43.894Z,12.30
2019-05-01T19:42:12.864Z,12.32
2019-05-01T19:44:43.869Z,12.35
2019-05-01T19:47:15.794Z,12.33
2019-05-01T19:49:47.853Z,12.38
2019-05-01T19:52:23.421Z,12.40
2019-05-01T19:54:55.926Z,12.39
2019-05-01T19:57:26.949Z,12.39
2019-05-01T19:59:58.777Z,12.34
2019-05-01T20:02:30.918Z,12.38
2019-05-01T20:05:02.131Z,12.39
2019-05-01T20:07:34.127Z,12.35
2019-05-01T20:10:05.664Z,12.38
2019-05-01T20:12:37.638Z,12.38
2019-05-01T20:15:09.064Z,12.51
2019-05-01T20:17:41.054Z,12.69
2019-05-01T20:20:12.274Z,12.82
2019-05-01T20:22:48.245Z,12.85
2019-05-01T20:25:19.356Z,12.87
2019-05-01T20:27:53.223Z,12.89
2019-05-01T20:30:25.463Z,12.88
2019-05-01T20:32:58.219Z,12.97
2019-05-01T20:35:34.167Z,13.00
2019-05-01T20:38:05.153Z,13.04
2019-05-01T20:40:37.413Z,13.05
2019-05-01T20:43:08.723Z,13.05
2019-05-01T20:45:40.594Z,13.04
2019-05-01T20:48:12.745Z,13.06
2019-05-01T20:50:44.775Z,13.14
2019-05-01T20:53:15.865Z,13.14
2019-05-01T20:55:55.345Z,13.13
2019-05-01T20:58:27.494Z,13.14
2019-05-01T21:01:03.071Z,13.20
2019-05-01T21:03:36.806Z,13.26
2019-05-01T21:06:33.825Z,13.32
2019-05-01T21:09:25.386Z,13.35
2019-05-01T21:12:05.390Z,13.35
2019-05-01T21:14:32.245Z,13.38
2019-05-01T21:17:09.662Z,13.40
2019-05-01T21:19:38.916Z,13.41
2019-05-01T21:22:10.833Z,13.41
2019-05-01T21:24:44.419Z,13.39
2019-05-01T21:27:16.494Z,13.40
2019-05-01T21:29:48.524Z,13.40
2019-05-01T21:32:26.125Z,13.38
2019-05-01T21:34:53.725Z,13.34
2019-05-01T21:37:25.875Z,13.33
2019-05-01T21:39:57.825Z,13.27
2019-05-01T21:42:29.865Z,13.31
2019-05-01T21:45:04.178Z,13.29
2019-05-01T21:47:35.614Z,13.28
2019-05-01T21:50:08.756Z,13.28
2019-05-01T21:52:43.783Z,13.25
2019-05-01T21:55:15.853Z,13.26
2019-05-01T21:57:50.097Z,13.22
2019-05-01T22:00:24.785Z,13.20
2019-05-01T22:02:57.309Z,13.19
2019-05-01T22:05:29.345Z,13.16
2019-05-01T22:08:03.805Z,13.13
2019-05-01T22:10:35.286Z,13.13
2019-05-01T22:13:07.103Z,13.16
2019-05-01T22:15:47.152Z,13.08
2019-05-01T22:18:21.946Z,13.06
2019-05-01T22:21:18.533Z,13.08
2019-05-01T22:24:07.114Z,13.09
2019-05-01T22:26:42.976Z,13.09
2019-05-01T22:29:16.655Z,13.08
2019-05-01T22:32:07.393Z,13.07
2019-05-01T22:34:46.315Z,13.06
2019-05-01T22:37:18.216Z,13.05
2019-05-01T22:39:56.573Z,13.05
2019-05-01T22:42:28.436Z,13.05
2019-05-01T22:45:00.365Z,13.03
2019-05-01T22:47:33.853Z,13.00
2019-05-01T22:50:09.003Z,12.93
2019-05-01T22:52:40.853Z,12.88
2019-05-01T22:55:15.793Z,12.83
2019-05-01T22:57:48.243Z,12.75
2019-05-01T23:00:40.093Z,12.65
2019-05-01T23:03:18.753Z,12.52
2019-05-01T23:05:50.726Z,12.44
2019-05-01T23:08:23.075Z,12.38
2019-05-01T23:10:55.085Z,12.32
2019-05-01T23:13:26.985Z,12.30
2019-05-01T23:15:59.193Z,12.23
2019-05-01T23:18:30.143Z,12.15
2019-05-01T23:21:02.025Z,12.03
2019-05-01T23:23:34.203Z,11.97
2019-05-01T23:26:06.328Z,11.88
2019-05-01T23:28:39.879Z,11.78
2019-05-01T23:31:11.935Z,11.73
2019-05-01T23:33:45.684Z,11.64
2019-05-01T23:36:23.817Z,11.59
2019-05-01T23:38:51.213Z,11.55
2019-05-01T23:41:44.280Z,11.50
2019-05-01T23:43:58.148Z,11.38
2019-05-01T23:46:31.445Z,11.32
2019-05-01T23:49:04.735Z,11.29
2019-05-01T23:51:36.713Z,11.25
2019-05-01T23:54:08.582Z,11.19
2019-05-01T23:56:39.784Z,11.14
2019-05-01T23:59:11.713Z,11.07
